Time;durP1;ratioP1;P1;durP2;ratioP2;P2;SDS_P1;SDS_P2;PMS_P1;PMS_P2;Temp;Humidity;BMP_temperature;BMP_pressure;BME280_temperature;BME280_humidity;BME280_pressure;Samples;Min_cycle;Max_cycle;Signal;HPM_P1;HPM_P2
2022/07/21 00:01:03;;;;;;;;;;;27.30;95.20;;;;;;5106041;28;19987;-51
2022/07/21 00:03:29;;;;;;;;;;;27.20;95.20;;;;;;5105811;28;19908;-53
2022/07/21 00:05:58;;;;;;;;;;;27.30;95.30;;;;;;5105870;28;19915;-54
2022/07/21 00:08:24;;;;;;;;;;;27.30;95.30;;;;;;5105562;28;19908;-54
2022/07/21 00:10:50;;;;;;;;;;;27.30;95.30;;;;;;5087373;28;19983;-50
2022/07/21 00:13:16;;;;;;;;;;;27.20;95.40;;;;;;5105780;28;20104;-53
2022/07/21 00:15:43;;;;;;;;;;;27.20;95.40;;;;;;5105493;28;19911;-57
2022/07/21 00:18:09;;;;;;;;;;;27.20;95.40;;;;;;5105336;28;20010;-54
2022/07/21 00:20:35;;;;;;;;;;;27.10;95.20;;;;;;5087019;28;19908;-52
2022/07/21 00:23:01;;;;;;;;;;;27.10;95.20;;;;;;5105623;28;19914;-51
2022/07/21 00:25:28;;;;;;;;;;;27.00;95.10;;;;;;5105265;28;19904;-51
2022/07/21 00:27:54;;;;;;;;;;;27.00;95.20;;;;;;5098904;28;19947;-56
2022/07/21 00:30:20;;;;;;;;;;;26.90;95.00;;;;;;5083513;28;19904;-52
2022/07/21 00:32:50;;;;;;;;;;;26.90;95.10;;;;;;5085480;28;19950;-56
2022/07/21 00:35:16;;;;;;;;;;;26.80;95.00;;;;;;5084656;28;19908;-57
2022/07/21 00:37:43;;;;;;;;;;;26.80;94.90;;;;;;5085104;28;19912;-51
2022/07/21 00:40:10;;;;;;;;;;;26.90;95.10;;;;;;5084610;28;19916;-57
2022/07/21 00:42:36;;;;;;;;;;;26.90;95.00;;;;;;5085015;28;19930;-53
2022/07/21 00:45:04;;;;;;;;;;;26.90;94.90;;;;;;5083482;28;19912;-53
2022/07/21 00:47:35;;;;;;;;;;;26.90;94.80;;;;;;5083193;28;19950;-53
2022/07/21 00:50:04;;;;;;;;;;;26.90;94.80;;;;;;5083104;28;19908;-55
2022/07/21 00:52:30;;;;;;;;;;;26.90;94.60;;;;;;5085233;28;19916;-56
2022/07/21 00:54:56;;;;;;;;;;;27.00;94.60;;;;;;5084424;28;20204;-59
2022/07/21 00:57:23;;;;;;;;;;;27.00;94.50;;;;;;5083805;28;19909;-57
2022/07/21 00:59:49;;;;;;;;;;;27.00;94.50;;;;;;5082696;28;19912;-61
2022/07/21 01:02:19;;;;;;;;;;;27.00;94.40;;;;;;5082931;28;19950;-63
2022/07/21 01:04:45;;;;;;;;;;;27.00;94.40;;;;;;5082547;28;20006;-55
2022/07/21 01:07:11;;;;;;;;;;;27.00;94.30;;;;;;5082420;28;19915;-54
2022/07/21 01:09:37;;;;;;;;;;;27.00;94.30;;;;;;5083022;28;19908;-52
2022/07/21 01:12:03;;;;;;;;;;;27.00;94.20;;;;;;5082447;28;19916;-53
2022/07/21 01:14:30;;;;;;;;;;;27.00;94.20;;;;;;5084441;28;19984;-52
2022/07/21 01:16:56;;;;;;;;;;;27.00;94.10;;;;;;5084290;28;19909;-55
2022/07/21 01:19:22;;;;;;;;;;;27.00;94.00;;;;;;5084491;28;19946;-55
2022/07/21 01:21:49;;;;;;;;;;;27.00;94.00;;;;;;5083992;28;19909;-64
2022/07/21 01:24:15;;;;;;;;;;;27.00;94.00;;;;;;5084629;28;19931;-56
2022/07/21 01:26:42;;;;;;;;;;;27.00;94.00;;;;;;5084016;28;19908;-59
2022/07/21 01:29:11;;;;;;;;;;;27.00;93.80;;;;;;5084390;28;20109;-57
2022/07/21 01:31:38;;;;;;;;;;;27.00;93.90;;;;;;5083405;28;19912;-57
2022/07/21 01:34:04;;;;;;;;;;;27.00;94.00;;;;;;5089305;28;19909;-60
2022/07/21 01:36:31;;;;;;;;;;;26.90;93.90;;;;;;5096933;28;20114;-57
2022/07/21 01:41:41;;;;;;;;;;;26.90;94.00;;;;;;5102193;28;20058;-62
2022/07/21 01:44:09;;;;;;;;;;;26.80;94.00;;;;;;5105089;28;19935;-55
2022/07/21 01:46:40;;;;;;;;;;;26.80;94.20;;;;;;5104464;28;19915;-58
2022/07/21 01:49:07;;;;;;;;;;;26.70;94.10;;;;;;5086190;28;20218;-57
2022/07/21 01:51:34;;;;;;;;;;;26.70;94.20;;;;;;5104028;28;19908;-55
2022/07/21 01:54:00;;;;;;;;;;;26.60;94.20;;;;;;5085438;28;19958;-55
2022/07/21 01:56:26;;;;;;;;;;;26.60;94.30;;;;;;5103398;28;19904;-59
2022/07/21 01:58:53;;;;;;;;;;;26.60;94.30;;;;;;5097516;28;19912;-60
2022/07/21 02:01:21;;;;;;;;;;;26.60;94.30;;;;;;5099241;28;19916;-56
2022/07/21 02:03:47;;;;;;;;;;;26.60;94.30;;;;;;5103487;28;19912;-57
2022/07/21 02:06:14;;;;;;;;;;;26.60;94.40;;;;;;5102044;28;19976;-56
2022/07/21 02:08:42;;;;;;;;;;;26.50;94.40;;;;;;5089255;28;19990;-57
2022/07/21 02:11:09;;;;;;;;;;;26.50;94.40;;;;;;5088516;28;19920;-62
2022/07/21 02:13:35;;;;;;;;;;;26.50;94.40;;;;;;5094187;28;19919;-52
2022/07/21 02:16:02;;;;;;;;;;;26.50;94.40;;;;;;5096861;28;20216;-55
2022/07/21 02:18:28;;;;;;;;;;;26.50;94.40;;;;;;5077182;28;19979;-61
2022/07/21 02:20:55;;;;;;;;;;;26.40;94.60;;;;;;5100158;28;20054;-55
2022/07/21 02:23:22;;;;;;;;;;;26.40;94.50;;;;;;5106157;28;19935;-57
2022/07/21 02:25:48;;;;;;;;;;;26.40;94.60;;;;;;5100151;28;20131;-52
2022/07/21 02:28:15;;;;;;;;;;;26.40;94.60;;;;;;5105419;28;19912;-54
2022/07/21 02:30:41;;;;;;;;;;;26.40;94.50;;;;;;5107447;28;19904;-56
2022/07/21 02:33:08;;;;;;;;;;;26.40;94.50;;;;;;5107185;28;19912;-54
2022/07/21 02:35:34;;;;;;;;;;;26.50;94.50;;;;;;5088670;28;19944;-52
2022/07/21 02:38:04;;;;;;;;;;;26.50;94.40;;;;;;5107483;28;19919;-52
2022/07/21 02:40:30;;;;;;;;;;;26.60;94.40;;;;;;5107193;28;19904;-54
2022/07/21 02:42:57;;;;;;;;;;;26.60;94.30;;;;;;5106702;28;19912;-55
2022/07/21 02:45:23;;;;;;;;;;;26.60;94.30;;;;;;5107158;28;19954;-54
2022/07/21 02:47:58;;;;;;;;;;;26.60;94.20;;;;;;5087966;28;19920;-54
2022/07/21 02:50:25;;;;;;;;;;;26.60;94.20;;;;;;5105247;28;19975;-53
2022/07/21 02:52:54;;;;;;;;;;;26.60;94.10;;;;;;5099137;28;20211;-56
2022/07/21 02:55:20;;;;;;;;;;;26.60;94.10;;;;;;5105276;28;19908;-54
2022/07/21 02:57:46;;;;;;;;;;;26.60;94.10;;;;;;5103488;28;19950;-54
2022/07/21 03:00:14;;;;;;;;;;;26.60;94.10;;;;;;5104065;28;19916;-51
2022/07/21 03:02:40;;;;;;;;;;;26.60;94.00;;;;;;5106744;28;19954;-55
2022/07/21 03:05:07;;;;;;;;;;;26.60;94.00;;;;;;5106932;28;20074;-56
2022/07/21 03:07:33;;;;;;;;;;;26.70;94.00;;;;;;5106678;28;19910;-53
2022/07/21 03:09:59;;;;;;;;;;;26.60;93.90;;;;;;5105009;28;19908;-53
2022/07/21 03:12:26;;;;;;;;;;;26.60;93.90;;;;;;5100063;28;19912;-54
2022/07/21 03:14:52;;;;;;;;;;;26.60;93.80;;;;;;5106406;28;19944;-55
2022/07/21 03:17:19;;;;;;;;;;;26.60;93.80;;;;;;5106849;28;19912;-55
2022/07/21 03:19:45;;;;;;;;;;;26.60;93.80;;;;;;5106258;28;19912;-52
2022/07/21 03:22:11;;;;;;;;;;;26.60;93.80;;;;;;5106573;28;19946;-54
2022/07/21 03:24:37;;;;;;;;;;;26.60;93.70;;;;;;5088547;28;20168;-58
2022/07/21 03:27:03;;;;;;;;;;;26.60;93.70;;;;;;5087303;28;20096;-55
2022/07/21 03:29:29;;;;;;;;;;;26.60;93.80;;;;;;5087795;28;19913;-54
2022/07/21 03:32:02;;;;;;;;;;;26.60;93.70;;;;;;5099842;28;19919;-55
2022/07/21 03:34:28;;;;;;;;;;;26.60;94.00;;;;;;5090494;28;19943;-53
2022/07/21 03:36:54;;;;;;;;;;;26.60;93.80;;;;;;5085976;28;19913;-56
2022/07/21 03:39:21;;;;;;;;;;;26.60;93.70;;;;;;5086198;28;19913;-55
2022/07/21 03:41:47;;;;;;;;;;;26.60;93.70;;;;;;5099948;28;20135;-57
2022/07/21 03:44:13;;;;;;;;;;;26.60;93.70;;;;;;5100477;28;19919;-54
2022/07/21 03:46:39;;;;;;;;;;;26.60;93.60;;;;;;5100538;28;19961;-53
2022/07/21 03:49:08;;;;;;;;;;;26.60;93.60;;;;;;5103033;28;19912;-53
2022/07/21 03:51:35;;;;;;;;;;;26.60;93.60;;;;;;5105440;28;20100;-54
2022/07/21 03:54:02;;;;;;;;;;;26.60;93.60;;;;;;5106127;28;20202;-57
2022/07/21 03:56:28;;;;;;;;;;;26.60;93.50;;;;;;5105381;28;20298;-54
2022/07/21 03:58:55;;;;;;;;;;;26.70;93.60;;;;;;5103928;28;19913;-54
2022/07/21 04:01:21;;;;;;;;;;;26.60;93.60;;;;;;5105966;28;20144;-53
2022/07/21 04:03:47;;;;;;;;;;;26.60;93.60;;;;;;5088454;28;19912;-54
2022/07/21 04:06:13;;;;;;;;;;;26.60;93.40;;;;;;5086184;28;19912;-58
2022/07/21 04:08:40;;;;;;;;;;;26.60;93.50;;;;;;5103646;28;19983;-59
2022/07/21 04:11:06;;;;;;;;;;;26.60;93.50;;;;;;5100019;28;19949;-56
2022/07/21 04:13:32;;;;;;;;;;;26.60;93.50;;;;;;5099758;28;20215;-53
2022/07/21 04:15:59;;;;;;;;;;;26.60;93.40;;;;;;5102927;28;19908;-55
2022/07/21 04:18:25;;;;;;;;;;;26.60;93.40;;;;;;5102483;28;20128;-54
2022/07/21 04:20:54;;;;;;;;;;;26.60;93.40;;;;;;5099292;28;19908;-53
2022/07/21 04:23:20;;;;;;;;;;;26.60;93.40;;;;;;5100386;28;19920;-56
2022/07/21 04:25:46;;;;;;;;;;;26.60;93.40;;;;;;5103675;28;19954;-53
2022/07/21 04:28:12;;;;;;;;;;;26.60;93.40;;;;;;5104068;28;19979;-53
2022/07/21 04:30:38;;;;;;;;;;;26.60;93.50;;;;;;5106010;28;19935;-53
2022/07/21 04:33:06;;;;;;;;;;;26.60;93.40;;;;;;5100325;28;19933;-54
2022/07/21 04:35:32;;;;;;;;;;;26.60;93.40;;;;;;5084422;28;20188;-54
2022/07/21 04:37:58;;;;;;;;;;;26.60;93.40;;;;;;5102912;28;20243;-59
2022/07/21 04:40:25;;;;;;;;;;;26.60;93.40;;;;;;5105193;28;19926;-54
2022/07/21 04:42:51;;;;;;;;;;;26.60;93.40;;;;;;5104739;28;20214;-55
2022/07/21 04:45:17;;;;;;;;;;;26.60;93.40;;;;;;5104534;28;19904;-55
2022/07/21 04:47:47;;;;;;;;;;;26.60;93.40;;;;;;5104731;28;19908;-54
2022/07/21 04:50:18;;;;;;;;;;;26.50;93.30;;;;;;5104766;28;19942;-54
2022/07/21 04:52:44;;;;;;;;;;;26.50;93.40;;;;;;5104776;28;19959;-55
2022/07/21 04:55:10;;;;;;;;;;;26.60;93.40;;;;;;5104995;28;19908;-55
2022/07/21 04:57:41;;;;;;;;;;;26.50;93.40;;;;;;5104907;28;19904;-54
2022/07/21 05:00:08;;;;;;;;;;;26.50;93.40;;;;;;5105011;28;19973;-53
2022/07/21 05:02:34;;;;;;;;;;;26.50;93.40;;;;;;5104834;28;20211;-56
2022/07/21 05:05:01;;;;;;;;;;;26.50;93.50;;;;;;5084934;28;19905;-52
2022/07/21 05:07:30;;;;;;;;;;;26.50;93.30;;;;;;5098588;28;20471;-52
2022/07/21 05:09:58;;;;;;;;;;;26.50;93.30;;;;;;5101585;28;19912;-54
2022/07/21 05:12:25;;;;;;;;;;;26.50;93.30;;;;;;5103954;28;20188;-53
2022/07/21 05:14:51;;;;;;;;;;;26.50;93.30;;;;;;5102443;28;20190;-54
2022/07/21 05:17:18;;;;;;;;;;;26.50;93.30;;;;;;5102744;28;19912;-53
2022/07/21 05:19:48;;;;;;;;;;;26.50;93.30;;;;;;5104519;28;20116;-51
2022/07/21 05:22:15;;;;;;;;;;;26.50;93.30;;;;;;5104681;28;19930;-54
2022/07/21 05:24:41;;;;;;;;;;;26.40;93.30;;;;;;5086676;28;19947;-55
2022/07/21 05:27:07;;;;;;;;;;;26.50;93.30;;;;;;5103888;28;19915;-52
2022/07/21 05:29:33;;;;;;;;;;;26.50;93.40;;;;;;5104885;28;19916;-57
2022/07/21 05:31:59;;;;;;;;;;;26.50;93.50;;;;;;5104293;28;19916;-56
2022/07/21 05:34:26;;;;;;;;;;;26.50;93.50;;;;;;5104809;28;19908;-54
2022/07/21 05:36:53;;;;;;;;;;;26.40;93.40;;;;;;5087821;28;20127;-55
2022/07/21 05:39:19;;;;;;;;;;;26.40;93.40;;;;;;5106757;28;20324;-54
2022/07/21 05:41:45;;;;;;;;;;;26.40;93.50;;;;;;5108140;28;20192;-54
2022/07/21 05:44:12;;;;;;;;;;;26.40;93.50;;;;;;5108364;28;19931;-57
2022/07/21 05:46:38;;;;;;;;;;;26.40;93.50;;;;;;5108335;28;19915;-56
2022/07/21 05:49:04;;;;;;;;;;;26.40;93.80;;;;;;5108228;28;19950;-52
2022/07/21 05:51:30;;;;;;;;;;;26.40;93.60;;;;;;5105845;28;20222;-56
2022/07/21 05:53:57;;;;;;;;;;;26.40;93.60;;;;;;5108460;28;19908;-55
2022/07/21 05:56:23;;;;;;;;;;;26.40;93.60;;;;;;5107831;28;19915;-54
2022/07/21 05:58:49;;;;;;;;;;;26.40;93.70;;;;;;5108258;28;19908;-56
2022/07/21 06:01:16;;;;;;;;;;;26.40;93.70;;;;;;5108753;28;20112;-56
2022/07/21 06:03:47;;;;;;;;;;;26.40;93.70;;;;;;5108158;28;19945;-53
2022/07/21 06:06:14;;;;;;;;;;;26.40;93.80;;;;;;5107778;28;19977;-53
2022/07/21 06:08:41;;;;;;;;;;;26.40;93.90;;;;;;5108142;28;20195;-53
2022/07/21 06:11:08;;;;;;;;;;;26.40;93.90;;;;;;5107389;28;19970;-56
2022/07/21 06:13:37;;;;;;;;;;;26.40;93.80;;;;;;5107891;28;19911;-54
2022/07/21 06:16:04;;;;;;;;;;;26.40;93.90;;;;;;5089660;28;19912;-56
2022/07/21 06:18:30;;;;;;;;;;;26.40;93.90;;;;;;5107893;28;20192;-53
2022/07/21 06:20:56;;;;;;;;;;;26.40;94.00;;;;;;5107449;28;20104;-55
2022/07/21 06:23:22;;;;;;;;;;;26.40;94.00;;;;;;5103832;28;19927;-58
2022/07/21 06:25:50;;;;;;;;;;;26.40;94.00;;;;;;5107195;28;19942;-53
2022/07/21 06:28:16;;;;;;;;;;;26.40;94.10;;;;;;5106737;28;19908;-54
2022/07/21 06:30:42;;;;;;;;;;;26.40;94.10;;;;;;5102847;28;19947;-53
2022/07/21 06:33:08;;;;;;;;;;;26.40;94.20;;;;;;5106416;28;19924;-53
2022/07/21 06:35:35;;;;;;;;;;;26.40;94.10;;;;;;5106938;28;19909;-53
2022/07/21 06:38:01;;;;;;;;;;;26.40;94.00;;;;;;5107368;28;20172;-53
2022/07/21 06:40:28;;;;;;;;;;;26.40;94.10;;;;;;5105003;28;19912;-53
2022/07/21 06:42:54;;;;;;;;;;;26.40;94.00;;;;;;5107104;28;19953;-55
2022/07/21 06:45:20;;;;;;;;;;;26.40;94.10;;;;;;5107226;28;20128;-53
2022/07/21 06:47:46;;;;;;;;;;;26.40;94.10;;;;;;5105827;28;19904;-53
2022/07/21 06:50:13;;;;;;;;;;;26.30;94.00;;;;;;5105090;28;19983;-54
2022/07/21 06:52:39;;;;;;;;;;;26.40;94.10;;;;;;5106638;28;19949;-56
2022/07/21 06:55:06;;;;;;;;;;;26.40;94.10;;;;;;5106510;28;20207;-54
2022/07/21 06:57:36;;;;;;;;;;;26.30;94.00;;;;;;5106789;28;19977;-56
2022/07/21 07:00:08;;;;;;;;;;;26.30;94.10;;;;;;5106772;28;19916;-54
2022/07/21 07:02:34;;;;;;;;;;;26.30;94.10;;;;;;5106709;28;19926;-54
2022/07/21 07:05:00;;;;;;;;;;;26.30;94.10;;;;;;5106775;28;19908;-49
2022/07/21 07:07:26;;;;;;;;;;;26.30;94.10;;;;;;5103817;28;19972;-55
2022/07/21 07:09:52;;;;;;;;;;;26.30;94.20;;;;;;5106507;28;19908;-54
2022/07/21 07:12:19;;;;;;;;;;;26.30;94.10;;;;;;5105537;28;19912;-54
2022/07/21 07:14:45;;;;;;;;;;;26.30;94.20;;;;;;5105939;28;19981;-54
2022/07/21 07:17:15;;;;;;;;;;;26.30;94.20;;;;;;5105597;28;19930;-53
2022/07/21 07:19:41;;;;;;;;;;;26.30;94.30;;;;;;5106724;28;19908;-59
2022/07/21 07:22:07;;;;;;;;;;;26.30;94.30;;;;;;5105533;28;19949;-54
2022/07/21 07:24:33;;;;;;;;;;;26.30;94.30;;;;;;5106664;28;19943;-53
2022/07/21 07:26:59;;;;;;;;;;;26.30;94.40;;;;;;5106407;28;19950;-53
2022/07/21 07:29:27;;;;;;;;;;;26.30;94.40;;;;;;5107510;28;19908;-55
2022/07/21 07:31:54;;;;;;;;;;;26.30;94.50;;;;;;5106429;28;19916;-56
2022/07/21 07:34:20;;;;;;;;;;;26.30;94.50;;;;;;5106460;28;19925;-53
2022/07/21 07:36:46;;;;;;;;;;;26.30;94.50;;;;;;5106146;28;19908;-54
2022/07/21 07:39:15;;;;;;;;;;;26.30;94.60;;;;;;5106745;28;20073;-55
2022/07/21 07:41:41;;;;;;;;;;;26.30;94.50;;;;;;5106315;28;19914;-53
2022/07/21 07:44:08;;;;;;;;;;;26.30;94.60;;;;;;5106392;28;20263;-52
2022/07/21 07:46:34;;;;;;;;;;;26.30;94.60;;;;;;5106197;28;19908;-53
2022/07/21 07:49:00;;;;;;;;;;;26.30;94.70;;;;;;5106449;28;20048;-52
2022/07/21 07:51:26;;;;;;;;;;;26.30;94.70;;;;;;5105703;28;19989;-52
2022/07/21 07:53:52;;;;;;;;;;;26.30;94.70;;;;;;5106337;28;19909;-53
2022/07/21 07:56:19;;;;;;;;;;;26.30;94.70;;;;;;5105926;28;19908;-53
2022/07/21 07:58:45;;;;;;;;;;;26.30;94.70;;;;;;5105666;28;19915;-56
2022/07/21 08:01:11;;;;;;;;;;;26.30;94.70;;;;;;5105819;28;19927;-54
2022/07/21 08:03:37;;;;;;;;;;;26.30;94.70;;;;;;5105888;28;19908;-54
2022/07/21 08:06:05;;;;;;;;;;;26.30;94.70;;;;;;5105653;28;19931;-52
2022/07/21 08:08:32;;;;;;;;;;;26.30;94.60;;;;;;5105767;28;19915;-55
2022/07/21 08:10:59;;;;;;;;;;;26.30;94.60;;;;;;5105840;28;19908;-55
2022/07/21 08:13:25;;;;;;;;;;;26.30;94.60;;;;;;5105897;28;19953;-50
2022/07/21 08:15:51;;;;;;;;;;;26.20;94.50;;;;;;5105656;28;19916;-56
2022/07/21 08:18:18;;;;;;;;;;;26.20;94.60;;;;;;5105746;28;19908;-54
2022/07/21 08:20:45;;;;;;;;;;;26.20;94.60;;;;;;5105305;28;19916;-54
2022/07/21 08:23:11;;;;;;;;;;;26.20;94.60;;;;;;5105258;28;19908;-54
2022/07/21 08:25:37;;;;;;;;;;;26.20;94.60;;;;;;5105319;28;19912;-55
2022/07/21 08:28:04;;;;;;;;;;;26.20;94.60;;;;;;5105390;28;19946;-55
2022/07/21 08:30:30;;;;;;;;;;;26.20;94.70;;;;;;5105195;28;19993;-54
2022/07/21 08:32:57;;;;;;;;;;;26.20;94.70;;;;;;5105296;28;20096;-51
2022/07/21 08:35:23;;;;;;;;;;;26.20;94.70;;;;;;5105040;28;20168;-51
2022/07/21 08:37:59;;;;;;;;;;;26.20;94.70;;;;;;5102020;28;19932;-55
2022/07/21 08:40:32;;;;;;;;;;;26.20;94.80;;;;;;5105205;28;19976;-56
2022/07/21 08:42:59;;;;;;;;;;;26.20;94.80;;;;;;5105501;28;19979;-52
2022/07/21 08:45:27;;;;;;;;;;;26.20;94.80;;;;;;5104895;28;19916;-54
2022/07/21 08:47:55;;;;;;;;;;;26.20;94.90;;;;;;5104834;28;20085;-55
2022/07/21 08:50:25;;;;;;;;;;;26.20;94.90;;;;;;5104746;28;19908;-53
2022/07/21 08:52:51;;;;;;;;;;;26.20;94.90;;;;;;5104722;28;19919;-53
2022/07/21 08:55:17;;;;;;;;;;;26.20;94.90;;;;;;5104867;28;19908;-55
2022/07/21 08:57:43;;;;;;;;;;;26.20;94.90;;;;;;5104633;28;19931;-57
2022/07/21 09:00:10;;;;;;;;;;;26.20;95.00;;;;;;5104641;28;19916;-54
2022/07/21 09:02:37;;;;;;;;;;;26.20;95.00;;;;;;5103295;28;20207;-53
2022/07/21 09:05:05;;;;;;;;;;;26.20;95.10;;;;;;5097507;28;19980;-56
2022/07/21 09:07:47;;;;;;;;;;;26.20;95.10;;;;;;5104526;28;20002;-62
2022/07/21 09:10:14;;;;;;;;;;;26.20;95.10;;;;;;5104112;28;19915;-53
2022/07/21 09:12:50;;;;;;;;;;;26.20;95.10;;;;;;5104014;28;20210;-52
2022/07/21 09:15:18;;;;;;;;;;;26.10;95.10;;;;;;5103723;28;20212;-53
2022/07/21 09:17:44;;;;;;;;;;;26.10;95.10;;;;;;5102049;28;19911;-52
2022/07/21 09:20:24;;;;;;;;;;;26.20;95.40;;;;;;5083400;28;19908;-55
2022/07/21 09:23:10;;;;;;;;;;;26.10;95.10;;;;;;5104193;28;19944;-54
2022/07/21 09:25:39;;;;;;;;;;;26.10;95.20;;;;;;5104625;28;19936;-51
2022/07/21 09:28:22;;;;;;;;;;;26.10;95.20;;;;;;5104566;28;19908;-51
2022/07/21 09:31:00;;;;;;;;;;;26.10;95.20;;;;;;5104548;28;19908;-53
2022/07/21 09:33:33;;;;;;;;;;;26.10;95.20;;;;;;5104518;28;19945;-60
2022/07/21 09:36:10;;;;;;;;;;;26.10;95.20;;;;;;5104571;28;19914;-54
2022/07/21 09:38:38;;;;;;;;;;;26.10;95.20;;;;;;5104602;28;19908;-52
2022/07/21 09:41:06;;;;;;;;;;;26.10;95.20;;;;;;5104279;28;19908;-56
2022/07/21 09:43:36;;;;;;;;;;;26.10;95.20;;;;;;5104376;28;19909;-54
2022/07/21 09:46:03;;;;;;;;;;;26.10;95.20;;;;;;5104106;28;19908;-52
2022/07/21 09:48:39;;;;;;;;;;;26.10;95.30;;;;;;5104315;28;19981;-53
2022/07/21 09:51:23;;;;;;;;;;;26.10;95.30;;;;;;5086098;28;19915;-53
2022/07/21 09:53:58;;;;;;;;;;;26.10;95.30;;;;;;5104798;28;19908;-51
2022/07/21 09:56:25;;;;;;;;;;;26.10;95.30;;;;;;5104076;28;19980;-59
2022/07/21 09:58:53;;;;;;;;;;;26.10;95.40;;;;;;5104217;28;19946;-53
2022/07/21 10:01:19;;;;;;;;;;;26.10;95.40;;;;;;5104179;28;20283;-54
2022/07/21 10:03:47;;;;;;;;;;;26.10;95.40;;;;;;5104521;28;19979;-55
2022/07/21 10:06:14;;;;;;;;;;;26.10;95.50;;;;;;5104037;28;19914;-55
2022/07/21 10:08:40;;;;;;;;;;;26.10;95.50;;;;;;5104370;28;19908;-53
2022/07/21 10:11:07;;;;;;;;;;;26.10;95.50;;;;;;5104018;28;19908;-51
2022/07/21 10:13:34;;;;;;;;;;;26.10;95.50;;;;;;5104128;28;19908;-53
2022/07/21 10:16:00;;;;;;;;;;;26.10;95.50;;;;;;5103898;28;20139;-53
2022/07/21 10:18:28;;;;;;;;;;;26.10;95.50;;;;;;5104224;28;19908;-61
2022/07/21 10:21:04;;;;;;;;;;;26.00;95.40;;;;;;5103828;28;19936;-53
2022/07/21 10:23:41;;;;;;;;;;;26.00;95.40;;;;;;5089014;28;19908;-51
2022/07/21 10:26:08;;;;;;;;;;;26.10;95.50;;;;;;5107129;28;19948;-53
2022/07/21 10:28:35;;;;;;;;;;;26.00;95.50;;;;;;5107700;28;20084;-54
2022/07/21 10:31:13;;;;;;;;;;;26.00;95.50;;;;;;5107421;28;19908;-52
2022/07/21 10:33:45;;;;;;;;;;;26.00;95.40;;;;;;5107672;28;20176;-51
2022/07/21 10:36:33;;;;;;;;;;;26.00;95.50;;;;;;5107541;28;19916;-56
2022/07/21 10:39:08;;;;;;;;;;;26.00;95.50;;;;;;5094684;28;19954;-53
2022/07/21 10:41:42;;;;;;;;;;;26.00;95.50;;;;;;5107244;28;19939;-52
2022/07/21 10:44:26;;;;;;;;;;;26.00;95.50;;;;;;5107515;28;19908;-53
2022/07/21 10:46:59;;;;;;;;;;;26.00;95.50;;;;;;5089177;28;19908;-54
2022/07/21 10:49:43;;;;;;;;;;;26.00;95.60;;;;;;5107358;28;19908;-52
2022/07/21 10:52:28;;;;;;;;;;;26.00;95.50;;;;;;5107204;28;19919;-53
2022/07/21 10:55:12;;;;;;;;;;;26.00;95.60;;;;;;5107136;28;19912;-52
2022/07/21 10:57:44;;;;;;;;;;;26.00;95.60;;;;;;5106709;28;19935;-52
2022/07/21 11:00:20;;;;;;;;;;;26.00;95.60;;;;;;5106922;28;19939;-51
2022/07/21 11:03:06;;;;;;;;;;;26.00;95.60;;;;;;5106864;28;19911;-55
2022/07/21 11:05:33;;;;;;;;;;;26.00;95.60;;;;;;5092705;28;19953;-53
2022/07/21 11:08:11;;;;;;;;;;;26.00;95.60;;;;;;5106863;28;19908;-54
2022/07/21 11:10:38;;;;;;;;;;;26.00;95.70;;;;;;5106843;28;20140;-51
2022/07/21 11:13:04;;;;;;;;;;;26.00;95.60;;;;;;5106802;28;19958;-53
2022/07/21 11:15:47;;;;;;;;;;;26.00;95.70;;;;;;5106442;28;19944;-49
2022/07/21 11:18:20;;;;;;;;;;;26.00;95.70;;;;;;5106652;28;20100;-53
2022/07/21 11:21:05;;;;;;;;;;;26.00;95.70;;;;;;5106528;28;19908;-51
2022/07/21 11:23:48;;;;;;;;;;;26.00;95.70;;;;;;5106754;28;19915;-56
2022/07/21 11:26:18;;;;;;;;;;;26.00;95.70;;;;;;5106641;28;20301;-53
2022/07/21 11:28:45;;;;;;;;;;;26.00;95.60;;;;;;5106953;28;19932;-53
2022/07/21 11:31:14;;;;;;;;;;;26.00;95.70;;;;;;5106174;28;19918;-54
2022/07/21 11:33:42;;;;;;;;;;;26.00;95.70;;;;;;5105799;28;19908;-53
2022/07/21 11:36:08;;;;;;;;;;;26.00;95.70;;;;;;5106125;28;20103;-54
2022/07/21 11:38:34;;;;;;;;;;;26.00;95.70;;;;;;5106446;28;19916;-54
2022/07/21 11:41:16;;;;;;;;;;;26.00;95.60;;;;;;5087938;28;19908;-54
2022/07/21 11:43:44;;;;;;;;;;;26.10;95.70;;;;;;5106260;28;19908;-54
2022/07/21 11:46:10;;;;;;;;;;;26.10;95.70;;;;;;5105891;28;19908;-55
2022/07/21 11:48:36;;;;;;;;;;;26.00;95.60;;;;;;5097638;28;19909;-53
2022/07/21 11:51:03;;;;;;;;;;;26.10;95.60;;;;;;5105660;28;19912;-53
2022/07/21 11:53:29;;;;;;;;;;;26.10;95.50;;;;;;5105917;28;19979;-55
2022/07/21 11:55:55;;;;;;;;;;;26.10;95.50;;;;;;5087689;28;19945;-53
2022/07/21 11:58:22;;;;;;;;;;;26.10;95.50;;;;;;5106072;28;19978;-54
2022/07/21 12:00:48;;;;;;;;;;;26.10;95.40;;;;;;5105415;28;20032;-56
2022/07/21 12:03:14;;;;;;;;;;;26.10;95.30;;;;;;5105520;28;19949;-53
2022/07/21 12:05:42;;;;;;;;;;;26.10;95.30;;;;;;5105593;28;19954;-54
2022/07/21 12:08:08;;;;;;;;;;;26.10;95.30;;;;;;5104796;28;19908;-53
2022/07/21 12:10:34;;;;;;;;;;;26.10;95.20;;;;;;5105529;28;19916;-56
2022/07/21 12:13:05;;;;;;;;;;;26.10;95.10;;;;;;5087232;28;20188;-53
2022/07/21 12:15:33;;;;;;;;;;;26.10;95.10;;;;;;5105435;28;19916;-52
2022/07/21 12:18:01;;;;;;;;;;;26.10;95.20;;;;;;5105498;28;20130;-54
2022/07/21 12:20:32;;;;;;;;;;;26.10;95.20;;;;;;5105396;28;20239;-52
2022/07/21 12:23:02;;;;;;;;;;;26.10;95.30;;;;;;5105267;28;19908;-53
2022/07/21 12:25:35;;;;;;;;;;;26.10;95.30;;;;;;5104452;28;19912;-52
2022/07/21 12:28:02;;;;;;;;;;;26.10;95.40;;;;;;5105411;28;20092;-52
2022/07/21 12:30:33;;;;;;;;;;;26.10;95.50;;;;;;5105103;28;19939;-54
2022/07/21 12:33:20;;;;;;;;;;;26.10;95.60;;;;;;5086930;28;19919;-53
2022/07/21 12:36:00;;;;;;;;;;;26.10;95.80;;;;;;5104956;28;20182;-55
2022/07/21 12:39:01;;;;;;;;;;;26.10;95.70;;;;;;5105227;28;20095;-54
2022/07/21 12:41:27;;;;;;;;;;;26.10;95.80;;;;;;5023394;28;19909;-53
2022/07/21 12:44:03;;;;;;;;;;;26.10;95.80;;;;;;5088552;28;19908;-52
2022/07/21 12:46:30;;;;;;;;;;;26.10;95.90;;;;;;5104130;28;20218;-55
2022/07/21 12:49:09;;;;;;;;;;;26.10;96.00;;;;;;5105239;28;19984;-54
2022/07/21 12:51:35;;;;;;;;;;;26.20;96.10;;;;;;5086417;28;19912;-53
2022/07/21 12:54:02;;;;;;;;;;;26.10;96.10;;;;;;5105406;28;19915;-55
2022/07/21 12:56:32;;;;;;;;;;;26.20;96.20;;;;;;5105499;28;19908;-56
2022/07/21 12:58:59;;;;;;;;;;;26.10;96.20;;;;;;5105702;28;19935;-55
2022/07/21 13:01:27;;;;;;;;;;;26.10;96.20;;;;;;5104692;28;19920;-54
2022/07/21 13:03:54;;;;;;;;;;;26.20;96.30;;;;;;5106398;28;19910;-55
2022/07/21 13:06:20;;;;;;;;;;;26.20;96.30;;;;;;5104728;28;20200;-54
2022/07/21 13:08:49;;;;;;;;;;;26.20;96.40;;;;;;5105299;28;19908;-55
2022/07/21 13:11:18;;;;;;;;;;;26.20;96.40;;;;;;5104655;28;19933;-53
2022/07/21 13:13:45;;;;;;;;;;;26.20;96.40;;;;;;5105302;28;19914;-54
2022/07/21 13:16:11;;;;;;;;;;;26.20;96.50;;;;;;5104587;28;19908;-56
2022/07/21 13:18:37;;;;;;;;;;;26.20;96.50;;;;;;5104675;28;19908;-55
2022/07/21 13:21:04;;;;;;;;;;;26.20;96.50;;;;;;5104425;28;19955;-52
2022/07/21 13:23:30;;;;;;;;;;;26.20;96.50;;;;;;5086553;28;20015;-51
2022/07/21 13:25:56;;;;;;;;;;;26.20;96.50;;;;;;5104553;28;19948;-56
2022/07/21 13:28:23;;;;;;;;;;;26.20;96.60;;;;;;5104469;28;20172;-52
2022/07/21 13:30:49;;;;;;;;;;;26.20;96.60;;;;;;5104486;28;19945;-53
2022/07/21 13:33:15;;;;;;;;;;;26.20;96.60;;;;;;5103509;28;19923;-53
2022/07/21 13:35:42;;;;;;;;;;;26.20;96.50;;;;;;5103313;28;19912;-52
2022/07/21 13:38:08;;;;;;;;;;;26.20;96.50;;;;;;5103495;28;20084;-54
2022/07/21 13:40:34;;;;;;;;;;;26.30;96.50;;;;;;5104301;28;19949;-55
2022/07/21 13:43:00;;;;;;;;;;;26.20;96.50;;;;;;5104248;28;20083;-53
2022/07/21 13:45:26;;;;;;;;;;;26.30;96.60;;;;;;5104430;28;19908;-55
2022/07/21 13:47:52;;;;;;;;;;;26.30;96.70;;;;;;5104275;28;19930;-53
2022/07/21 13:50:19;;;;;;;;;;;26.30;96.70;;;;;;5104011;28;19950;-53
2022/07/21 13:52:45;;;;;;;;;;;26.30;96.70;;;;;;5104085;28;19978;-53
2022/07/21 13:55:11;;;;;;;;;;;26.30;96.70;;;;;;5104142;28;20284;-58
2022/07/21 13:57:37;;;;;;;;;;;26.30;96.80;;;;;;5105650;28;19904;-57
2022/07/21 14:00:05;;;;;;;;;;;26.30;96.70;;;;;;5107917;28;19924;-53
2022/07/21 14:02:32;;;;;;;;;;;26.30;96.70;;;;;;5107918;28;20184;-54
2022/07/21 14:04:58;;;;;;;;;;;26.30;96.70;;;;;;5107900;28;19949;-53
2022/07/21 14:07:24;;;;;;;;;;;26.30;96.60;;;;;;5089882;28;19981;-53
2022/07/21 14:09:50;;;;;;;;;;;26.30;96.60;;;;;;5108418;28;19915;-53
2022/07/21 14:12:18;;;;;;;;;;;26.30;96.60;;;;;;5089697;28;20104;-54
2022/07/21 14:14:46;;;;;;;;;;;26.30;96.50;;;;;;5108391;28;19908;-54
2022/07/21 14:17:13;;;;;;;;;;;26.30;96.50;;;;;;5107758;28;19978;-58
2022/07/21 14:19:40;;;;;;;;;;;26.30;96.50;;;;;;5108221;28;20199;-60
2022/07/21 14:22:06;;;;;;;;;;;26.30;96.50;;;;;;5107576;28;19908;-54
2022/07/21 14:27:16;;;;;;;;;;;26.30;96.40;;;;;;5106477;28;19949;-53